Terminal Aerodrome Forecast
Issued by NWS Cleveland, OH

Current Version | Previous Version | Text Only | Print | Product List | Glossary On
Versions: 1 2 3 4 5 6 7 8 9 10 11 12 13 14
000
FTUS41 KCLE 301730
TAFTOL
TAF
KTOL 301730Z 3018/3118 24010KT P6SM VCTS BKN045CB
      TEMPO 3018/3021 2SM -TSRA OVC025CB
     FM302300 02012KT 6SM -SHRA OVC035
     FM310300 03014KT 5SM -SHRA BR OVC015
     FM310800 03014KT 3SM -SHRA OVC005
     FM311600 04014KT P6SM VCSH OVC015=

USA.gov is the U.S. government's official web portal to all federal, state and local government web resources and services.